sensor_id;sensor_type;location;lat;lon;timestamp;pressure;altitude;pressure_sealevel;temperature;humidity
74169;BME280;62523;53.336;83.690;2022-08-21T00:03:08;99523.66;;;10.33;86.93
74169;BME280;62523;53.336;83.690;2022-08-21T00:08:09;99516.03;;;10.44;86.04
74169;BME280;62523;53.336;83.690;2022-08-21T00:13:12;99521.91;;;10.49;86.57
74169;BME280;62523;53.336;83.690;2022-08-21T00:18:14;99525.31;;;10.51;86.07
74169;BME280;62523;53.336;83.690;2022-08-21T00:23:15;99524.16;;;10.57;85.74
74169;BME280;62523;53.336;83.690;2022-08-21T00:28:17;99522.56;;;10.70;84.87
74169;BME280;62523;53.336;83.690;2022-08-21T00:33:18;99534.56;;;10.76;85.10
74169;BME280;62523;53.336;83.690;2022-08-21T00:38:20;99529.47;;;10.89;84.60
74169;BME280;62523;53.336;83.690;2022-08-21T00:43:25;99536.28;;;10.93;84.03
74169;BME280;62523;53.336;83.690;2022-08-21T00:48:28;99535.66;;;10.88;84.05
74169;BME280;62523;53.336;83.690;2022-08-21T00:53:30;99533.03;;;10.88;84.11
74169;BME280;62523;53.336;83.690;2022-08-21T00:58:32;99530.31;;;10.89;83.87
74169;BME280;62523;53.336;83.690;2022-08-21T01:03:37;99535.38;;;11.25;82.59
74169;BME280;62523;53.336;83.690;2022-08-21T01:08:38;99543.16;;;11.27;82.19
74169;BME280;62523;53.336;83.690;2022-08-21T01:13:40;99541.56;;;11.24;82.65
74169;BME280;62523;53.336;83.690;2022-08-21T01:18:46;99546.00;;;11.24;83.23
74169;BME280;62523;53.336;83.690;2022-08-21T01:23:51;99544.72;;;10.99;84.29
74169;BME280;62523;53.336;83.690;2022-08-21T01:34:22;99547.66;;;12.47;78.36
74169;BME280;62523;53.336;83.690;2022-08-21T01:39:23;99537.94;;;13.34;73.98
74169;BME280;62523;53.336;83.690;2022-08-21T01:44:26;99539.94;;;12.73;76.71
74169;BME280;62523;53.336;83.690;2022-08-21T01:49:28;99536.09;;;13.49;73.96
74169;BME280;62523;53.336;83.690;2022-08-21T01:54:30;99535.00;;;13.39;74.48
74169;BME280;62523;53.336;83.690;2022-08-21T01:59:32;99546.75;;;13.06;75.76
74169;BME280;62523;53.336;83.690;2022-08-21T02:04:34;99528.31;;;13.04;76.25
74169;BME280;62523;53.336;83.690;2022-08-21T02:09:35;99534.34;;;13.21;75.70
74169;BME280;62523;53.336;83.690;2022-08-21T02:14:37;99527.59;;;13.44;74.48
74169;BME280;62523;53.336;83.690;2022-08-21T02:19:38;99528.03;;;13.78;73.01
74169;BME280;62523;53.336;83.690;2022-08-21T02:24:39;99529.97;;;13.88;72.64
74169;BME280;62523;53.336;83.690;2022-08-21T02:29:40;99521.78;;;14.31;72.23
74169;BME280;62523;53.336;83.690;2022-08-21T02:34:42;99526.63;;;14.12;71.50
74169;BME280;62523;53.336;83.690;2022-08-21T02:39:43;99524.19;;;14.99;68.93
74169;BME280;62523;53.336;83.690;2022-08-21T02:44:44;99529.00;;;14.68;70.73
74169;BME280;62523;53.336;83.690;2022-08-21T02:49:46;99533.13;;;14.85;69.10
74169;BME280;62523;53.336;83.690;2022-08-21T02:54:47;99535.94;;;15.07;68.06
74169;BME280;62523;53.336;83.690;2022-08-21T02:59:48;99540.34;;;15.32;67.34
74169;BME280;62523;53.336;83.690;2022-08-21T03:04:50;99545.09;;;15.40;67.80
74169;BME280;62523;53.336;83.690;2022-08-21T03:09:51;99545.66;;;15.32;67.67
74169;BME280;62523;53.336;83.690;2022-08-21T03:14:52;99530.06;;;15.28;67.59
74169;BME280;62523;53.336;83.690;2022-08-21T03:19:56;99538.94;;;16.12;65.09
74169;BME280;62523;53.336;83.690;2022-08-21T03:24:57;99538.41;;;16.65;64.18
74169;BME280;62523;53.336;83.690;2022-08-21T03:30:00;99542.06;;;16.17;63.38
74169;BME280;62523;53.336;83.690;2022-08-21T03:35:03;99541.53;;;16.47;61.02
74169;BME280;62523;53.336;83.690;2022-08-21T03:40:06;99543.34;;;16.47;61.17
74169;BME280;62523;53.336;83.690;2022-08-21T03:45:08;99530.78;;;16.49;61.02
74169;BME280;62523;53.336;83.690;2022-08-21T03:50:14;99544.09;;;16.60;59.65
74169;BME280;62523;53.336;83.690;2022-08-21T03:55:18;99534.91;;;16.42;59.95
74169;BME280;62523;53.336;83.690;2022-08-21T04:00:20;99530.84;;;16.94;57.72
74169;BME280;62523;53.336;83.690;2022-08-21T04:05:21;99535.81;;;16.18;58.98
74169;BME280;62523;53.336;83.690;2022-08-21T04:10:31;99537.69;;;16.63;58.01
74169;BME280;62523;53.336;83.690;2022-08-21T04:15:33;99529.38;;;17.01;56.88
74169;BME280;62523;53.336;83.690;2022-08-21T04:20:34;99525.50;;;17.05;56.54
74169;BME280;62523;53.336;83.690;2022-08-21T04:25:36;99519.56;;;16.90;57.62
74169;BME280;62523;53.336;83.690;2022-08-21T04:30:37;99519.38;;;17.80;52.97
74169;BME280;62523;53.336;83.690;2022-08-21T04:35:38;99511.13;;;18.16;53.64
74169;BME280;62523;53.336;83.690;2022-08-21T04:40:40;99504.88;;;18.27;53.12
74169;BME280;62523;53.336;83.690;2022-08-21T04:45:44;99498.94;;;18.02;53.07
74169;BME280;62523;53.336;83.690;2022-08-21T04:51:00;99506.53;;;17.42;55.04
74169;BME280;62523;53.336;83.690;2022-08-21T04:56:13;99498.31;;;17.02;56.35
74169;BME280;62523;53.336;83.690;2022-08-21T05:01:19;99503.34;;;16.71;56.67
74169;BME280;62523;53.336;83.690;2022-08-21T05:06:23;99503.13;;;16.74;57.31
74169;BME280;62523;53.336;83.690;2022-08-21T05:11:24;99499.97;;;16.69;56.66
74169;BME280;62523;53.336;83.690;2022-08-21T05:16:26;99494.75;;;16.56;57.41
74169;BME280;62523;53.336;83.690;2022-08-21T05:21:27;99492.22;;;16.77;57.52
74169;BME280;62523;53.336;83.690;2022-08-21T05:26:29;99486.28;;;17.51;55.21
74169;BME280;62523;53.336;83.690;2022-08-21T05:31:31;99482.91;;;17.60;54.70
74169;BME280;62523;53.336;83.690;2022-08-21T05:36:35;99481.19;;;17.27;54.46
74169;BME280;62523;53.336;83.690;2022-08-21T05:41:40;99470.69;;;17.25;55.65
74169;BME280;62523;53.336;83.690;2022-08-21T05:46:41;99478.00;;;17.33;54.78
74169;BME280;62523;53.336;83.690;2022-08-21T05:51:42;99469.41;;;17.40;52.39
74169;BME280;62523;53.336;83.690;2022-08-21T05:56:44;99473.50;;;17.12;53.37
74169;BME280;62523;53.336;83.690;2022-08-21T06:01:46;99461.13;;;17.11;53.51
74169;BME280;62523;53.336;83.690;2022-08-21T06:06:47;99458.88;;;17.39;52.02
74169;BME280;62523;53.336;83.690;2022-08-21T06:11:48;99460.19;;;17.77;51.01
74169;BME280;62523;53.336;83.690;2022-08-21T06:16:50;99451.56;;;17.52;49.14
74169;BME280;62523;53.336;83.690;2022-08-21T06:21:51;99460.03;;;17.90;47.59
74169;BME280;62523;53.336;83.690;2022-08-21T06:26:53;99445.34;;;18.26;48.83
74169;BME280;62523;53.336;83.690;2022-08-21T06:31:55;99444.78;;;17.59;49.72
74169;BME280;62523;53.336;83.690;2022-08-21T06:36:56;99442.59;;;17.86;48.44
74169;BME280;62523;53.336;83.690;2022-08-21T06:41:58;99441.34;;;18.11;46.11
74169;BME280;62523;53.336;83.690;2022-08-21T06:46:59;99439.69;;;18.19;45.45
74169;BME280;62523;53.336;83.690;2022-08-21T06:52:01;99439.53;;;17.90;46.98
74169;BME280;62523;53.336;83.690;2022-08-21T06:57:02;99437.63;;;18.23;44.37
74169;BME280;62523;53.336;83.690;2022-08-21T07:02:04;99435.38;;;18.18;40.39
74169;BME280;62523;53.336;83.690;2022-08-21T07:07:05;99424.91;;;18.36;41.20
74169;BME280;62523;53.336;83.690;2022-08-21T07:12:06;99400.84;;;19.27;42.21
74169;BME280;62523;53.336;83.690;2022-08-21T07:17:08;99417.03;;;19.26;42.40
74169;BME280;62523;53.336;83.690;2022-08-21T07:22:09;99414.66;;;19.32;43.63
74169;BME280;62523;53.336;83.690;2022-08-21T07:27:10;99395.13;;;19.51;41.79
74169;BME280;62523;53.336;83.690;2022-08-21T07:32:12;99392.56;;;19.11;43.57
74169;BME280;62523;53.336;83.690;2022-08-21T07:37:13;99399.19;;;19.26;41.88
74169;BME280;62523;53.336;83.690;2022-08-21T07:42:15;99396.03;;;18.82;41.85
74169;BME280;62523;53.336;83.690;2022-08-21T07:47:16;99396.81;;;19.23;41.53
74169;BME280;62523;53.336;83.690;2022-08-21T07:52:18;99388.50;;;19.36;41.10
74169;BME280;62523;53.336;83.690;2022-08-21T07:57:20;99372.16;;;18.80;41.67
74169;BME280;62523;53.336;83.690;2022-08-21T08:02:26;99374.63;;;18.72;42.79
74169;BME280;62523;53.336;83.690;2022-08-21T08:07:28;99375.06;;;18.77;43.24
74169;BME280;62523;53.336;83.690;2022-08-21T08:12:29;99361.50;;;19.49;39.64
74169;BME280;62523;53.336;83.690;2022-08-21T08:17:30;99359.66;;;19.78;35.78
74169;BME280;62523;53.336;83.690;2022-08-21T08:22:34;99355.31;;;18.90;39.66
74169;BME280;62523;53.336;83.690;2022-08-21T08:27:36;99351.22;;;18.86;41.13
74169;BME280;62523;53.336;83.690;2022-08-21T08:32:38;99346.06;;;19.42;39.99
74169;BME280;62523;53.336;83.690;2022-08-21T08:37:43;99340.53;;;19.44;39.37
74169;BME280;62523;53.336;83.690;2022-08-21T08:42:46;99333.75;;;19.69;39.88
74169;BME280;62523;53.336;83.690;2022-08-21T08:47:56;99319.72;;;20.14;40.64
74169;BME280;62523;53.336;83.690;2022-08-21T08:53:07;99323.47;;;20.21;40.98
74169;BME280;62523;53.336;83.690;2022-08-21T08:58:24;99322.69;;;20.11;41.59
74169;BME280;62523;53.336;83.690;2022-08-21T09:03:27;99323.88;;;20.54;40.27
74169;BME280;62523;53.336;83.690;2022-08-21T09:08:54;99316.50;;;20.66;40.12
74169;BME280;62523;53.336;83.690;2022-08-21T09:25:04;99305.88;;;19.91;41.00
74169;BME280;62523;53.336;83.690;2022-08-21T09:30:10;99312.63;;;20.23;40.92
74169;BME280;62523;53.336;83.690;2022-08-21T09:35:14;99313.34;;;20.25;39.15
74169;BME280;62523;53.336;83.690;2022-08-21T09:40:23;99303.84;;;20.58;39.91
74169;BME280;62523;53.336;83.690;2022-08-21T09:45:28;99303.56;;;20.61;38.20
74169;BME280;62523;53.336;83.690;2022-08-21T09:50:30;99308.09;;;20.97;37.57
74169;BME280;62523;53.336;83.690;2022-08-21T09:55:37;99300.06;;;20.33;39.07
74169;BME280;62523;53.336;83.690;2022-08-21T10:00:59;99300.81;;;19.88;40.06
74169;BME280;62523;53.336;83.690;2022-08-21T10:06:07;99304.22;;;20.18;39.67
74169;BME280;62523;53.336;83.690;2022-08-21T10:11:14;99294.72;;;20.05;39.83
74169;BME280;62523;53.336;83.690;2022-08-21T10:28:05;99292.66;;;19.90;40.87
74169;BME280;62523;53.336;83.690;2022-08-21T10:32:57;99297.75;;;19.63;40.47
74169;BME280;62523;53.336;83.690;2022-08-21T10:48:58;99299.16;;;19.68;40.52
74169;BME280;62523;53.336;83.690;2022-08-21T10:59:51;99300.47;;;19.54;40.53
74169;BME280;62523;53.336;83.690;2022-08-21T11:10:23;99294.44;;;19.42;42.01
74169;BME280;62523;53.336;83.690;2022-08-21T11:15:47;99298.41;;;19.28;42.42
74169;BME280;62523;53.336;83.690;2022-08-21T11:43:12;99302.09;;;18.98;45.53
74169;BME280;62523;53.336;83.690;2022-08-21T11:53:39;99300.25;;;18.79;46.34
74169;BME280;62523;53.336;83.690;2022-08-21T11:58:49;99288.72;;;18.78;46.50
74169;BME280;62523;53.336;83.690;2022-08-21T12:03:57;99299.41;;;18.78;45.85
74169;BME280;62523;53.336;83.690;2022-08-21T12:09:05;99285.03;;;18.70;46.02
74169;BME280;62523;53.336;83.690;2022-08-21T12:29:31;99299.63;;;18.56;44.85
74169;BME280;62523;53.336;83.690;2022-08-21T12:34:42;99296.66;;;18.49;45.41
74169;BME280;62523;53.336;83.690;2022-08-21T12:39:48;99289.06;;;18.45;45.80
74169;BME280;62523;53.336;83.690;2022-08-21T12:44:56;99284.28;;;18.38;46.39
74169;BME280;62523;53.336;83.690;2022-08-21T12:50:26;99290.31;;;18.40;46.83
74169;BME280;62523;53.336;83.690;2022-08-21T12:55:33;99298.63;;;18.37;47.44
74169;BME280;62523;53.336;83.690;2022-08-21T13:00:34;99284.69;;;18.24;48.07
74169;BME280;62523;53.336;83.690;2022-08-21T13:05:36;99295.72;;;18.19;48.67
74169;BME280;62523;53.336;83.690;2022-08-21T13:10:40;99295.72;;;18.19;48.79
74169;BME280;62523;53.336;83.690;2022-08-21T13:15:42;99302.06;;;18.18;48.55
74169;BME280;62523;53.336;83.690;2022-08-21T13:20:44;99305.13;;;18.14;48.69
74169;BME280;62523;53.336;83.690;2022-08-21T13:25:45;99311.72;;;18.10;49.35
74169;BME280;62523;53.336;83.690;2022-08-21T13:30:50;99308.75;;;18.03;49.74
74169;BME280;62523;53.336;83.690;2022-08-21T13:41:08;99317.28;;;17.97;49.83
74169;BME280;62523;53.336;83.690;2022-08-21T13:46:13;99316.97;;;17.90;50.30
74169;BME280;62523;53.336;83.690;2022-08-21T13:51:15;99324.03;;;17.80;50.99
74169;BME280;62523;53.336;83.690;2022-08-21T13:56:42;99329.97;;;17.84;50.93
74169;BME280;62523;53.336;83.690;2022-08-21T14:07:27;99342.34;;;17.73;51.46
74169;BME280;62523;53.336;83.690;2022-08-21T14:12:41;99349.38;;;17.74;51.24
74169;BME280;62523;53.336;83.690;2022-08-21T14:17:45;99350.88;;;17.67;51.80
74169;BME280;62523;53.336;83.690;2022-08-21T14:22:47;99351.53;;;17.59;52.19
74169;BME280;62523;53.336;83.690;2022-08-21T14:27:56;99362.75;;;17.42;52.70
74169;BME280;62523;53.336;83.690;2022-08-21T14:32:59;99366.88;;;17.14;54.04
74169;BME280;62523;53.336;83.690;2022-08-21T14:38:11;99362.22;;;16.95;55.99
74169;BME280;62523;53.336;83.690;2022-08-21T14:43:12;99362.16;;;16.74;57.95
74169;BME280;62523;53.336;83.690;2022-08-21T14:48:14;99369.91;;;16.43;60.33
74169;BME280;62523;53.336;83.690;2022-08-21T14:53:15;99380.94;;;16.16;63.12
74169;BME280;62523;53.336;83.690;2022-08-21T14:58:18;99384.53;;;16.04;64.89
74169;BME280;62523;53.336;83.690;2022-08-21T15:03:21;99380.63;;;15.74;66.27
74169;BME280;62523;53.336;83.690;2022-08-21T15:08:26;99405.06;;;15.79;66.94
74169;BME280;62523;53.336;83.690;2022-08-21T15:13:27;99399.34;;;15.72;67.47
74169;BME280;62523;53.336;83.690;2022-08-21T15:18:35;99375.09;;;15.53;67.76
74169;BME280;62523;53.336;83.690;2022-08-21T15:23:37;99401.72;;;15.64;68.02
74169;BME280;62523;53.336;83.690;2022-08-21T15:28:39;99386.31;;;15.45;68.30
74169;BME280;62523;53.336;83.690;2022-08-21T15:33:40;99393.22;;;15.48;68.63
74169;BME280;62523;53.336;83.690;2022-08-21T15:38:41;99405.53;;;15.49;68.74
74169;BME280;62523;53.336;83.690;2022-08-21T15:43:49;99406.72;;;15.45;69.34
74169;BME280;62523;53.336;83.690;2022-08-21T15:48:54;99396.78;;;15.35;68.13
74169;BME280;62523;53.336;83.690;2022-08-21T15:53:55;99400.31;;;15.36;66.87
74169;BME280;62523;53.336;83.690;2022-08-21T15:59:01;99412.69;;;15.35;67.30
74169;BME280;62523;53.336;83.690;2022-08-21T16:04:04;99415.69;;;15.31;67.56
74169;BME280;62523;53.336;83.690;2022-08-21T16:09:09;99403.97;;;15.22;67.75
74169;BME280;62523;53.336;83.690;2022-08-21T16:14:12;99399.00;;;15.18;67.23
74169;BME280;62523;53.336;83.690;2022-08-21T16:19:15;99413.25;;;15.17;66.50
74169;BME280;62523;53.336;83.690;2022-08-21T16:24:16;99403.53;;;15.04;67.02
74169;BME280;62523;53.336;83.690;2022-08-21T16:29:18;99394.94;;;15.01;66.36
74169;BME280;62523;53.336;83.690;2022-08-21T16:34:20;99393.69;;;14.93;67.30
74169;BME280;62523;53.336;83.690;2022-08-21T16:39:22;99401.03;;;14.90;67.22
74169;BME280;62523;53.336;83.690;2022-08-21T16:44:23;99410.16;;;14.86;67.52
74169;BME280;62523;53.336;83.690;2022-08-21T16:49:24;99408.59;;;14.83;67.08
74169;BME280;62523;53.336;83.690;2022-08-21T16:54:26;99405.00;;;14.84;67.51
74169;BME280;62523;53.336;83.690;2022-08-21T16:59:27;99394.94;;;14.77;67.56
74169;BME280;62523;53.336;83.690;2022-08-21T17:04:28;99403.63;;;14.79;67.94
74169;BME280;62523;53.336;83.690;2022-08-21T17:09:31;99403.72;;;14.77;67.29
74169;BME280;62523;53.336;83.690;2022-08-21T17:14:34;99406.94;;;14.69;66.95
74169;BME280;62523;53.336;83.690;2022-08-21T17:19:36;99399.94;;;14.68;66.81
74169;BME280;62523;53.336;83.690;2022-08-21T17:24:38;99392.94;;;14.67;66.40
74169;BME280;62523;53.336;83.690;2022-08-21T17:29:40;99395.94;;;14.63;66.92
74169;BME280;62523;53.336;83.690;2022-08-21T17:34:41;99398.16;;;14.56;67.19
74169;BME280;62523;53.336;83.690;2022-08-21T17:39:43;99396.88;;;14.62;67.17
74169;BME280;62523;53.336;83.690;2022-08-21T17:44:44;99395.69;;;14.53;67.32
74169;BME280;62523;53.336;83.690;2022-08-21T17:49:46;99399.13;;;14.55;67.37
74169;BME280;62523;53.336;83.690;2022-08-21T17:54:47;99389.91;;;14.48;67.67
74169;BME280;62523;53.336;83.690;2022-08-21T17:59:49;99386.16;;;14.50;67.86
74169;BME280;62523;53.336;83.690;2022-08-21T18:04:50;99395.94;;;14.50;68.06
74169;BME280;62523;53.336;83.690;2022-08-21T18:09:52;99387.13;;;14.49;67.83
74169;BME280;62523;53.336;83.690;2022-08-21T18:14:53;99382.88;;;14.47;68.21
74169;BME280;62523;53.336;83.690;2022-08-21T18:19:55;99380.34;;;14.45;68.47
74169;BME280;62523;53.336;83.690;2022-08-21T18:24:56;99382.88;;;14.47;68.33
74169;BME280;62523;53.336;83.690;2022-08-21T18:29:59;99380.56;;;14.42;68.72
74169;BME280;62523;53.336;83.690;2022-08-21T18:35:03;99372.63;;;14.42;69.24
74169;BME280;62523;53.336;83.690;2022-08-21T18:40:06;99368.72;;;14.35;69.78
74169;BME280;62523;53.336;83.690;2022-08-21T18:45:17;99368.31;;;14.28;71.10
74169;BME280;62523;53.336;83.690;2022-08-21T18:50:22;99369.81;;;14.20;71.80
74169;BME280;62523;53.336;83.690;2022-08-21T18:55:24;99360.38;;;14.16;72.08
74169;BME280;62523;53.336;83.690;2022-08-21T19:00:29;99359.50;;;14.15;72.49
74169;BME280;62523;53.336;83.690;2022-08-21T19:05:30;99356.34;;;14.10;72.05
74169;BME280;62523;53.336;83.690;2022-08-21T19:10:31;99358.75;;;14.13;71.69
74169;BME280;62523;53.336;83.690;2022-08-21T19:15:33;99346.59;;;14.10;71.27
74169;BME280;62523;53.336;83.690;2022-08-21T19:20:37;99339.63;;;13.97;71.37
74169;BME280;62523;53.336;83.690;2022-08-21T19:25:44;99352.22;;;13.93;72.62
74169;BME280;62523;53.336;83.690;2022-08-21T19:30:54;99355.19;;;13.50;75.97
74169;BME280;62523;53.336;83.690;2022-08-21T19:35:57;99350.19;;;13.05;79.88
74169;BME280;62523;53.336;83.690;2022-08-21T19:40:59;99340.97;;;12.98;80.06
74169;BME280;62523;53.336;83.690;2022-08-21T19:46:01;99343.59;;;12.98;79.81
74169;BME280;62523;53.336;83.690;2022-08-21T19:51:03;99331.41;;;13.23;79.45
74169;BME280;62523;53.336;83.690;2022-08-21T19:56:05;99331.69;;;13.18;79.35
74169;BME280;62523;53.336;83.690;2022-08-21T20:01:09;99331.69;;;13.18;78.91
74169;BME280;62523;53.336;83.690;2022-08-21T20:06:11;99328.13;;;13.19;79.11
74169;BME280;62523;53.336;83.690;2022-08-21T20:11:13;99332.88;;;13.27;78.61
74169;BME280;62523;53.336;83.690;2022-08-21T20:16:15;99334.25;;;13.20;79.25
74169;BME280;62523;53.336;83.690;2022-08-21T20:21:17;99335.31;;;13.17;79.30
74169;BME280;62523;53.336;83.690;2022-08-21T20:26:18;99329.38;;;13.14;79.40
74169;BME280;62523;53.336;83.690;2022-08-21T20:31:20;99331.88;;;13.02;79.23
74169;BME280;62523;53.336;83.690;2022-08-21T20:36:22;99328.28;;;13.03;79.60
74169;BME280;62523;53.336;83.690;2022-08-21T20:41:24;99316.09;;;13.01;80.44
74169;BME280;62523;53.336;83.690;2022-08-21T20:46:29;99317.16;;;12.98;80.84
74169;BME280;62523;53.336;83.690;2022-08-21T20:51:37;99316.31;;;12.98;81.18
74169;BME280;62523;53.336;83.690;2022-08-21T21:02:04;99324.53;;;12.80;81.82
74169;BME280;62523;53.336;83.690;2022-08-21T21:07:09;99326.50;;;12.77;82.15
74169;BME280;62523;53.336;83.690;2022-08-21T21:12:26;99329.38;;;12.74;82.74
74169;BME280;62523;53.336;83.690;2022-08-21T21:17:44;99317.88;;;12.60;83.42
74169;BME280;62523;53.336;83.690;2022-08-21T21:22:53;99327.41;;;12.63;83.33
74169;BME280;62523;53.336;83.690;2022-08-21T21:28:00;99331.28;;;12.57;83.59
74169;BME280;62523;53.336;83.690;2022-08-21T21:33:03;99329.03;;;12.51;83.77
74169;BME280;62523;53.336;83.690;2022-08-21T22:00:23;99327.38;;;12.36;85.00
74169;BME280;62523;53.336;83.690;2022-08-21T22:10:59;99332.97;;;12.31;85.35
74169;BME280;62523;53.336;83.690;2022-08-21T22:16:03;99331.44;;;12.27;85.97
74169;BME280;62523;53.336;83.690;2022-08-21T22:21:43;99327.84;;;12.28;85.79
74169;BME280;62523;53.336;83.690;2022-08-21T22:26:49;99326.47;;;12.22;86.29
74169;BME280;62523;53.336;83.690;2022-08-21T22:32:08;99329.03;;;12.24;86.34
74169;BME280;62523;53.336;83.690;2022-08-21T22:37:10;99329.19;;;12.21;86.55
74169;BME280;62523;53.336;83.690;2022-08-21T22:42:20;99331.00;;;12.20;86.91
74169;BME280;62523;53.336;83.690;2022-08-21T22:52:36;99329.94;;;12.23;87.12
74169;BME280;62523;53.336;83.690;2022-08-21T22:57:44;99330.41;;;12.29;87.09
74169;BME280;62523;53.336;83.690;2022-08-21T23:07:50;99327.69;;;12.31;87.24
74169;BME280;62523;53.336;83.690;2022-08-21T23:23:24;99328.25;;;12.22;87.77
74169;BME280;62523;53.336;83.690;2022-08-21T23:34:06;99335.03;;;12.26;88.14
74169;BME280;62523;53.336;83.690;2022-08-21T23:39:47;99331.25;;;12.30;88.70
